sensor_id;sensor_type;location;lat;lon;timestamp;pressure;altitude;pressure_sealevel;temperature;humidity
71970;BME280;59838;52.152;5.436;2023-10-31T00:00:34;99673.38;;;9.46;100.00
71970;BME280;59838;52.152;5.436;2023-10-31T00:03:01;99672.78;;;9.44;100.00
71970;BME280;59838;52.152;5.436;2023-10-31T00:05:27;99674.75;;;9.42;100.00
71970;BME280;59838;52.152;5.436;2023-10-31T00:07:54;99678.56;;;9.40;100.00
71970;BME280;59838;52.152;5.436;2023-10-31T00:10:20;99679.56;;;9.39;100.00
71970;BME280;59838;52.152;5.436;2023-10-31T00:12:47;99675.78;;;9.35;100.00
71970;BME280;59838;52.152;5.436;2023-10-31T00:15:14;99677.38;;;9.36;100.00
71970;BME280;59838;52.152;5.436;2023-10-31T00:17:40;99670.81;;;9.33;100.00
71970;BME280;59838;52.152;5.436;2023-10-31T00:20:07;99670.00;;;9.32;100.00
71970;BME280;59838;52.152;5.436;2023-10-31T00:22:34;99677.00;;;9.32;100.00
71970;BME280;59838;52.152;5.436;2023-10-31T00:25:00;99679.78;;;9.30;100.00
71970;BME280;59838;52.152;5.436;2023-10-31T00:27:27;99686.78;;;9.30;100.00
71970;BME280;59838;52.152;5.436;2023-10-31T00:29:53;99693.72;;;9.29;100.00
71970;BME280;59838;52.152;5.436;2023-10-31T00:32:20;99694.53;;;9.30;100.00
71970;BME280;59838;52.152;5.436;2023-10-31T00:34:46;99705.69;;;9.30;100.00
71970;BME280;59838;52.152;5.436;2023-10-31T00:37:13;99705.69;;;9.30;100.00
71970;BME280;59838;52.152;5.436;2023-10-31T00:39:39;99691.13;;;9.29;100.00
71970;BME280;59838;52.152;5.436;2023-10-31T00:42:06;99693.94;;;9.28;100.00
71970;BME280;59838;52.152;5.436;2023-10-31T00:44:33;99694.94;;;9.27;100.00
71970;BME280;59838;52.152;5.436;2023-10-31T00:46:59;99693.34;;;9.26;100.00
71970;BME280;59838;52.152;5.436;2023-10-31T00:49:26;99688.34;;;9.24;100.00
71970;BME280;59838;52.152;5.436;2023-10-31T00:51:52;99689.13;;;9.25;100.00
71970;BME280;59838;52.152;5.436;2023-10-31T00:54:19;99694.56;;;9.23;100.00
71970;BME280;59838;52.152;5.436;2023-10-31T00:56:45;99709.09;;;9.24;100.00
71970;BME280;59838;52.152;5.436;2023-10-31T00:59:12;99705.72;;;9.24;100.00
71970;BME280;59838;52.152;5.436;2023-10-31T01:01:38;99707.50;;;9.23;100.00
71970;BME280;59838;52.152;5.436;2023-10-31T01:04:05;99713.28;;;9.25;100.00
71970;BME280;59838;52.152;5.436;2023-10-31T01:06:31;99715.88;;;9.25;100.00
71970;BME280;59838;52.152;5.436;2023-10-31T01:08:58;99718.47;;;9.25;100.00
71970;BME280;59838;52.152;5.436;2023-10-31T01:11:24;99721.06;;;9.25;100.00
71970;BME280;59838;52.152;5.436;2023-10-31T01:13:51;99724.25;;;9.27;100.00
71970;BME280;59838;52.152;5.436;2023-10-31T01:16:18;99732.59;;;9.29;100.00
71970;BME280;59838;52.152;5.436;2023-10-31T01:18:44;99731.03;;;9.28;100.00
71970;BME280;59838;52.152;5.436;2023-10-31T01:21:11;99734.22;;;9.30;100.00
71970;BME280;59838;52.152;5.436;2023-10-31T01:23:37;99735.00;;;9.31;100.00
71970;BME280;59838;52.152;5.436;2023-10-31T01:26:03;99741.78;;;9.32;100.00
71970;BME280;59838;52.152;5.436;2023-10-31T01:28:30;99739.19;;;9.32;100.00
71970;BME280;59838;52.152;5.436;2023-10-31T01:30:56;99747.75;;;9.32;100.00
71970;BME280;59838;52.152;5.436;2023-10-31T01:33:23;99751.16;;;9.33;100.00
71970;BME280;59838;52.152;5.436;2023-10-31T01:35:49;99750.97;;;9.35;100.00
71970;BME280;59838;52.152;5.436;2023-10-31T01:38:16;99754.94;;;9.37;100.00
71970;BME280;59838;52.152;5.436;2023-10-31T01:40:42;99754.16;;;9.37;100.00
71970;BME280;59838;52.152;5.436;2023-10-31T01:43:09;99752.16;;;9.39;100.00
71970;BME280;59838;52.152;5.436;2023-10-31T01:45:36;99762.31;;;9.40;100.00
71970;BME280;59838;52.152;5.436;2023-10-31T01:48:02;99757.91;;;9.41;100.00
71970;BME280;59838;52.152;5.436;2023-10-31T01:50:29;99757.72;;;9.42;100.00
71970;BME280;59838;52.152;5.436;2023-10-31T01:52:56;99757.91;;;9.41;100.00
71970;BME280;59838;52.152;5.436;2023-10-31T01:55:22;99756.94;;;9.42;100.00
71970;BME280;59838;52.152;5.436;2023-10-31T01:57:53;99757.72;;;9.42;100.00
71970;BME280;59838;52.152;5.436;2023-10-31T02:00:20;99759.31;;;9.43;100.00
71970;BME280;59838;52.152;5.436;2023-10-31T02:02:47;99759.13;;;9.45;100.00
71970;BME280;59838;52.152;5.436;2023-10-31T02:05:15;99764.09;;;9.46;100.00
71970;BME280;59838;52.152;5.436;2023-10-31T02:07:44;99756.91;;;9.48;100.00
71970;BME280;59838;52.152;5.436;2023-10-31T02:10:11;99753.34;;;9.49;100.00
71970;BME280;59838;52.152;5.436;2023-10-31T02:12:40;99755.72;;;9.51;100.00
71970;BME280;59838;52.152;5.436;2023-10-31T02:15:08;99757.31;;;9.52;100.00
71970;BME280;59838;52.152;5.436;2023-10-31T02:17:35;99761.50;;;9.53;100.00
71970;BME280;59838;52.152;5.436;2023-10-31T02:20:01;99764.69;;;9.55;100.00
71970;BME280;59838;52.152;5.436;2023-10-31T02:22:28;99756.13;;;9.55;100.00
71970;BME280;59838;52.152;5.436;2023-10-31T02:24:54;99758.50;;;9.56;100.00
71970;BME280;59838;52.152;5.436;2023-10-31T02:27:20;99752.53;;;9.56;100.00
71970;BME280;59838;52.152;5.436;2023-10-31T02:29:47;99760.69;;;9.59;100.00
71970;BME280;59838;52.152;5.436;2023-10-31T02:32:13;99754.50;;;9.60;100.00
71970;BME280;59838;52.152;5.436;2023-10-31T02:34:40;99755.31;;;9.61;100.00
71970;BME280;59838;52.152;5.436;2023-10-31T02:37:07;99751.91;;;9.60;100.00
71970;BME280;59838;52.152;5.436;2023-10-31T02:39:33;99759.69;;;9.60;100.00
71970;BME280;59838;52.152;5.436;2023-10-31T02:41:59;99770.06;;;9.60;100.00
71970;BME280;59838;52.152;5.436;2023-10-31T02:44:26;99764.66;;;9.62;100.00
71970;BME280;59838;52.152;5.436;2023-10-31T02:46:52;99767.06;;;9.63;100.00
71970;BME280;59838;52.152;5.436;2023-10-31T02:49:19;99771.25;;;9.64;100.00
71970;BME280;59838;52.152;5.436;2023-10-31T02:51:45;99777.22;;;9.65;100.00
71970;BME280;59838;52.152;5.436;2023-10-31T02:54:12;99771.25;;;9.64;100.00
71970;BME280;59838;52.152;5.436;2023-10-31T02:56:38;99773.84;;;9.64;100.00
71970;BME280;59838;52.152;5.436;2023-10-31T02:59:05;99777.44;;;9.63;100.00
71970;BME280;59838;52.152;5.436;2023-10-31T03:01:32;99783.25;;;9.65;100.00
71970;BME280;59838;52.152;5.436;2023-10-31T03:03:58;99781.63;;;9.64;100.00
71970;BME280;59838;52.152;5.436;2023-10-31T03:06:25;99784.22;;;9.64;100.00
71970;BME280;59838;52.152;5.436;2023-10-31T03:08:51;99780.84;;;9.64;100.00
71970;BME280;59838;52.152;5.436;2023-10-31T03:11:24;99787.22;;;9.61;100.00
71970;BME280;59838;52.152;5.436;2023-10-31T03:13:52;99796.00;;;9.60;100.00
71970;BME280;59838;52.152;5.436;2023-10-31T03:16:22;99796.19;;;9.59;100.00
71970;BME280;59838;52.152;5.436;2023-10-31T03:18:49;99803.97;;;9.59;100.00
71970;BME280;59838;52.152;5.436;2023-10-31T03:21:16;99807.38;;;9.59;100.00
71970;BME280;59838;52.152;5.436;2023-10-31T03:23:47;99808.94;;;9.60;100.00
71970;BME280;59838;52.152;5.436;2023-10-31T03:26:18;99808.16;;;9.60;100.00
71970;BME280;59838;52.152;5.436;2023-10-31T03:28:45;99814.97;;;9.61;100.00
71970;BME280;59838;52.152;5.436;2023-10-31T03:31:12;99823.53;;;9.61;100.00
71970;BME280;59838;52.152;5.436;2023-10-31T03:33:40;99830.31;;;9.62;100.00
71970;BME280;59838;52.152;5.436;2023-10-31T03:36:07;99824.94;;;9.64;100.00
71970;BME280;59838;52.152;5.436;2023-10-31T03:38:35;99830.91;;;9.64;100.00
71970;BME280;59838;52.152;5.436;2023-10-31T03:41:02;99847.06;;;9.66;100.00
71970;BME280;59838;52.152;5.436;2023-10-31T03:43:29;99843.66;;;9.66;100.00
71970;BME280;59838;52.152;5.436;2023-10-31T03:45:55;99847.06;;;9.66;100.00
71970;BME280;59838;52.152;5.436;2023-10-31T03:48:22;99856.44;;;9.67;100.00
71970;BME280;59838;52.152;5.436;2023-10-31T03:50:48;99862.63;;;9.66;100.00
71970;BME280;59838;52.152;5.436;2023-10-31T03:53:16;99861.81;;;9.66;100.00
71970;BME280;59838;52.152;5.436;2023-10-31T03:55:43;99876.59;;;9.65;100.00
71970;BME280;59838;52.152;5.436;2023-10-31T03:58:09;99876.59;;;9.65;100.00
71970;BME280;59838;52.152;5.436;2023-10-31T04:00:36;99869.81;;;9.64;100.00
71970;BME280;59838;52.152;5.436;2023-10-31T04:03:03;99880.19;;;9.64;100.00
71970;BME280;59838;52.152;5.436;2023-10-31T04:05:29;99881.16;;;9.63;100.00
71970;BME280;59838;52.152;5.436;2023-10-31T04:07:56;99883.75;;;9.63;100.00
71970;BME280;59838;52.152;5.436;2023-10-31T04:10:22;99879.78;;;9.61;100.00
71970;BME280;59838;52.152;5.436;2023-10-31T04:12:49;99887.56;;;9.61;100.00
71970;BME280;59838;52.152;5.436;2023-10-31T04:15:15;99891.34;;;9.58;100.00
71970;BME280;59838;52.152;5.436;2023-10-31T04:17:42;99896.53;;;9.58;100.00
71970;BME280;59838;52.152;5.436;2023-10-31T04:20:08;99895.75;;;9.58;100.00
71970;BME280;59838;52.152;5.436;2023-10-31T04:22:35;99894.91;;;9.57;100.00
71970;BME280;59838;52.152;5.436;2023-10-31T04:25:02;99908.91;;;9.56;100.00
71970;BME280;59838;52.152;5.436;2023-10-31T04:27:28;99899.72;;;9.54;100.00
71970;BME280;59838;52.152;5.436;2023-10-31T04:29:55;99902.69;;;9.50;100.00
71970;BME280;59838;52.152;5.436;2023-10-31T04:32:21;99900.31;;;9.49;100.00
71970;BME280;59838;52.152;5.436;2023-10-31T04:34:48;99904.91;;;9.47;100.00
71970;BME280;59838;52.152;5.436;2023-10-31T04:37:14;99906.09;;;9.44;100.00
71970;BME280;59838;52.152;5.436;2023-10-31T04:39:41;99909.69;;;9.43;100.00
71970;BME280;59838;52.152;5.436;2023-10-31T04:42:07;99916.66;;;9.43;100.00
71970;BME280;59838;52.152;5.436;2023-10-31T04:44:33;99908.06;;;9.42;100.00
71970;BME280;59838;52.152;5.436;2023-10-31T04:47:00;99920.25;;;9.42;100.00
71970;BME280;59838;52.152;5.436;2023-10-31T04:49:27;99915.84;;;9.42;100.00
71970;BME280;59838;52.152;5.436;2023-10-31T04:51:53;99915.25;;;9.40;100.00
71970;BME280;59838;52.152;5.436;2023-10-31T04:54:20;99917.84;;;9.40;100.00
71970;BME280;59838;52.152;5.436;2023-10-31T04:56:49;99918.63;;;9.41;100.00
71970;BME280;59838;52.152;5.436;2023-10-31T04:59:16;99918.84;;;9.39;100.00
71970;BME280;59838;52.152;5.436;2023-10-31T05:01:48;99926.81;;;9.38;100.00
71970;BME280;59838;52.152;5.436;2023-10-31T05:04:15;99924.41;;;9.36;100.00
71970;BME280;59838;52.152;5.436;2023-10-31T05:06:42;99922.03;;;9.35;100.00
71970;BME280;59838;52.152;5.436;2023-10-31T05:09:08;99925.63;;;9.33;100.00
71970;BME280;59838;52.152;5.436;2023-10-31T05:11:37;99929.19;;;9.32;100.00
71970;BME280;59838;52.152;5.436;2023-10-31T05:14:03;99932.59;;;9.33;100.00
71970;BME280;59838;52.152;5.436;2023-10-31T05:16:30;99933.59;;;9.32;100.00
71970;BME280;59838;52.152;5.436;2023-10-31T05:18:57;99938.19;;;9.30;100.00
71970;BME280;59838;52.152;5.436;2023-10-31T05:21:26;99948.53;;;9.30;100.00
71970;BME280;59838;52.152;5.436;2023-10-31T05:23:53;99944.34;;;9.29;100.00
71970;BME280;59838;52.152;5.436;2023-10-31T05:26:19;99951.34;;;9.28;100.00
71970;BME280;59838;52.152;5.436;2023-10-31T05:28:46;99947.91;;;9.28;100.00
71970;BME280;59838;52.152;5.436;2023-10-31T05:31:15;99950.09;;;9.24;100.00
71970;BME280;59838;52.152;5.436;2023-10-31T05:33:42;99941.53;;;9.24;100.00
71970;BME280;59838;52.152;5.436;2023-10-31T05:36:18;99951.91;;;9.24;100.00
71970;BME280;59838;52.152;5.436;2023-10-31T05:38:45;99965.06;;;9.22;100.00
71970;BME280;59838;52.152;5.436;2023-10-31T05:41:11;99960.28;;;9.19;100.00
71970;BME280;59838;52.152;5.436;2023-10-31T05:43:38;99968.22;;;9.18;100.00
71970;BME280;59838;52.152;5.436;2023-10-31T05:46:04;99975.22;;;9.17;100.00
71970;BME280;59838;52.152;5.436;2023-10-31T05:48:32;99978.78;;;9.16;100.00
71970;BME280;59838;52.152;5.436;2023-10-31T05:50:58;99970.22;;;9.15;100.00
71970;BME280;59838;52.152;5.436;2023-10-31T05:53:24;99970.41;;;9.14;100.00
71970;BME280;59838;52.152;5.436;2023-10-31T05:55:51;99974.00;;;9.13;100.00
71970;BME280;59838;52.152;5.436;2023-10-31T05:58:17;99976.59;;;9.13;100.00
71970;BME280;59838;52.152;5.436;2023-10-31T06:00:45;99982.78;;;9.12;100.00
71970;BME280;59838;52.152;5.436;2023-10-31T06:03:13;99983.56;;;9.12;100.00
71970;BME280;59838;52.152;5.436;2023-10-31T06:05:39;99976.78;;;9.11;100.00
71970;BME280;59838;52.152;5.436;2023-10-31T06:08:06;99983.75;;;9.11;100.00
71970;BME280;59838;52.152;5.436;2023-10-31T06:10:32;99984.56;;;9.11;100.00
71970;BME280;59838;52.152;5.436;2023-10-31T06:12:59;99988.16;;;9.10;100.00
71970;BME280;59838;52.152;5.436;2023-10-31T06:15:25;99995.09;;;9.10;100.00
71970;BME280;59838;52.152;5.436;2023-10-31T06:17:51;99996.13;;;9.09;100.00
71970;BME280;59838;52.152;5.436;2023-10-31T06:20:18;99998.72;;;9.09;100.00
71970;BME280;59838;52.152;5.436;2023-10-31T06:22:44;100006.47;;;9.09;100.00
71970;BME280;59838;52.152;5.436;2023-10-31T06:25:11;100005.66;;;9.08;100.00
71970;BME280;59838;52.152;5.436;2023-10-31T06:27:37;100000.66;;;9.07;100.00
71970;BME280;59838;52.152;5.436;2023-10-31T06:30:04;100004.88;;;9.08;100.00
71970;BME280;59838;52.152;5.436;2023-10-31T06:32:46;100011.03;;;9.07;100.00
71970;BME280;59838;52.152;5.436;2023-10-31T06:35:12;100017.81;;;9.08;100.00
71970;BME280;59838;52.152;5.436;2023-10-31T06:37:39;100015.25;;;9.08;100.00
71970;BME280;59838;52.152;5.436;2023-10-31T06:40:06;100016.03;;;9.08;100.00
71970;BME280;59838;52.152;5.436;2023-10-31T06:42:32;100013.44;;;9.08;100.00
71970;BME280;59838;52.152;5.436;2023-10-31T06:44:59;100023.81;;;9.08;100.00
71970;BME280;59838;52.152;5.436;2023-10-31T06:47:25;100032.41;;;9.09;100.00
71970;BME280;59838;52.152;5.436;2023-10-31T06:49:52;100034.34;;;9.07;100.00
71970;BME280;59838;52.152;5.436;2023-10-31T06:52:18;100035.38;;;9.06;100.00
71970;BME280;59838;52.152;5.436;2023-10-31T06:54:45;100042.13;;;9.07;100.00
71970;BME280;59838;52.152;5.436;2023-10-31T06:57:11;100035.38;;;9.06;100.00
71970;BME280;59838;52.152;5.436;2023-10-31T06:59:38;100032.78;;;9.06;100.00
71970;BME280;59838;52.152;5.436;2023-10-31T07:02:04;100034.97;;;9.09;100.00
71970;BME280;59838;52.152;5.436;2023-10-31T07:04:31;100043.16;;;9.12;100.00
71970;BME280;59838;52.152;5.436;2023-10-31T07:06:57;100045.66;;;9.34;100.00
71970;BME280;59838;52.152;5.436;2023-10-31T07:09:25;100045.31;;;9.57;100.00
71970;BME280;59838;52.152;5.436;2023-10-31T07:11:52;100050.97;;;9.74;100.00
71970;BME280;59838;52.152;5.436;2023-10-31T07:14:19;100046.25;;;10.04;100.00
71970;BME280;59838;52.152;5.436;2023-10-31T07:16:45;100052.47;;;10.43;100.00
71970;BME280;59838;52.152;5.436;2023-10-31T07:19:12;100049.63;;;10.72;100.00
71970;BME280;59838;52.152;5.436;2023-10-31T07:21:38;100059.06;;;10.39;100.00
71970;BME280;59838;52.152;5.436;2023-10-31T07:24:05;100059.03;;;10.13;100.00
71970;BME280;59838;52.152;5.436;2023-10-31T07:26:35;100065.00;;;10.06;100.00
71970;BME280;59838;52.152;5.436;2023-10-31T07:29:02;100069.78;;;10.10;100.00
71970;BME280;59838;52.152;5.436;2023-10-31T07:31:28;100072.78;;;10.13;100.00
71970;BME280;59838;52.152;5.436;2023-10-31T07:33:55;100074.19;;;10.16;100.00
71970;BME280;59838;52.152;5.436;2023-10-31T07:36:22;100080.00;;;10.24;100.00
71970;BME280;59838;52.152;5.436;2023-10-31T07:38:48;100084.38;;;10.24;100.00
71970;BME280;59838;52.152;5.436;2023-10-31T07:41:15;100083.38;;;10.25;100.00
71970;BME280;59838;52.152;5.436;2023-10-31T07:43:42;100086.38;;;10.22;100.00
71970;BME280;59838;52.152;5.436;2023-10-31T07:46:08;100085.19;;;10.18;100.00
71970;BME280;59838;52.152;5.436;2023-10-31T07:48:35;100087.78;;;10.18;100.00
71970;BME280;59838;52.152;5.436;2023-10-31T07:51:01;100091.16;;;10.18;100.00
71970;BME280;59838;52.152;5.436;2023-10-31T07:53:28;100095.75;;;10.23;100.00
71970;BME280;59838;52.152;5.436;2023-10-31T07:55:54;100097.78;;;10.28;100.00
71970;BME280;59838;52.152;5.436;2023-10-31T07:58:21;100091.59;;;10.29;100.00
71970;BME280;59838;52.152;5.436;2023-10-31T08:00:47;100098.59;;;10.35;100.00
71970;BME280;59838;52.152;5.436;2023-10-31T08:03:14;100097.22;;;10.32;100.00
71970;BME280;59838;52.152;5.436;2023-10-31T08:05:40;100100.38;;;10.28;100.00
71970;BME280;59838;52.152;5.436;2023-10-31T08:08:07;100101.16;;;10.21;100.00
71970;BME280;59838;52.152;5.436;2023-10-31T08:10:33;100113.34;;;10.14;100.00
71970;BME280;59838;52.152;5.436;2023-10-31T08:13:00;100097.13;;;10.12;100.00
71970;BME280;59838;52.152;5.436;2023-10-31T08:15:27;100107.31;;;10.14;100.00
71970;BME280;59838;52.152;5.436;2023-10-31T08:17:53;100107.94;;;10.16;100.00
71970;BME280;59838;52.152;5.436;2023-10-31T08:20:20;100107.94;;;10.22;100.00
71970;BME280;59838;52.152;5.436;2023-10-31T08:22:47;100104.22;;;10.38;100.00
71970;BME280;59838;52.152;5.436;2023-10-31T08:25:13;100114.19;;;10.55;100.00
71970;BME280;59838;52.152;5.436;2023-10-31T08:27:40;100114.97;;;10.62;100.00
71970;BME280;59838;52.152;5.436;2023-10-31T08:30:07;100117.78;;;10.60;100.00
71970;BME280;59838;52.152;5.436;2023-10-31T08:32:33;100112.78;;;10.52;100.00
71970;BME280;59838;52.152;5.436;2023-10-31T08:35:00;100123.56;;;10.42;100.00
71970;BME280;59838;52.152;5.436;2023-10-31T08:37:27;100122.56;;;10.37;100.00
71970;BME280;59838;52.152;5.436;2023-10-31T08:39:54;100126.94;;;10.36;100.00
71970;BME280;59838;52.152;5.436;2023-10-31T08:42:20;100130.56;;;10.49;100.00
71970;BME280;59838;52.152;5.436;2023-10-31T08:44:46;100132.56;;;10.67;100.00
71970;BME280;59838;52.152;5.436;2023-10-31T08:47:13;100124.75;;;10.80;100.00
71970;BME280;59838;52.152;5.436;2023-10-31T08:49:40;100136.97;;;10.79;100.00
71970;BME280;59838;52.152;5.436;2023-10-31T08:52:07;100137.38;;;10.76;100.00
71970;BME280;59838;52.152;5.436;2023-10-31T08:54:33;100134.78;;;10.70;100.00
71970;BME280;59838;52.152;5.436;2023-10-31T08:57:00;100140.16;;;10.68;100.00
71970;BME280;59838;52.152;5.436;2023-10-31T08:59:26;100142.16;;;10.66;100.00
71970;BME280;59838;52.152;5.436;2023-10-31T09:01:53;100142.97;;;10.67;100.00
71970;BME280;59838;52.152;5.436;2023-10-31T09:04:19;100162.16;;;10.72;100.00
71970;BME280;59838;52.152;5.436;2023-10-31T09:06:46;100162.75;;;10.74;100.00
71970;BME280;59838;52.152;5.436;2023-10-31T09:09:12;100171.13;;;10.76;100.00
71970;BME280;59838;52.152;5.436;2023-10-31T09:11:39;100160.16;;;10.74;100.00
71970;BME280;59838;52.152;5.436;2023-10-31T09:14:06;100173.16;;;10.74;100.00
71970;BME280;59838;52.152;5.436;2023-10-31T09:16:32;100177.13;;;10.77;100.00
71970;BME280;59838;52.152;5.436;2023-10-31T09:18:59;100183.34;;;10.83;100.00
71970;BME280;59838;52.152;5.436;2023-10-31T09:21:25;100181.34;;;10.85;100.00
71970;BME280;59838;52.152;5.436;2023-10-31T09:23:52;100181.13;;;10.86;100.00
71970;BME280;59838;52.152;5.436;2023-10-31T09:26:18;100194.53;;;10.90;100.00
71970;BME280;59838;52.152;5.436;2023-10-31T09:28:44;100186.72;;;10.96;100.00
71970;BME280;59838;52.152;5.436;2023-10-31T09:31:17;100188.53;;;11.03;100.00
71970;BME280;59838;52.152;5.436;2023-10-31T09:33:45;100197.34;;;11.08;100.00
71970;BME280;59838;52.152;5.436;2023-10-31T09:36:12;100198.50;;;11.12;100.00
71970;BME280;59838;52.152;5.436;2023-10-31T09:38:40;100195.31;;;11.17;100.00
71970;BME280;59838;52.152;5.436;2023-10-31T09:41:07;100195.09;;;11.25;100.00
71970;BME280;59838;52.152;5.436;2023-10-31T09:43:33;100195.69;;;11.34;100.00
71970;BME280;59838;52.152;5.436;2023-10-31T09:46:00;100199.88;;;11.42;100.00
71970;BME280;59838;52.152;5.436;2023-10-31T09:48:28;100200.25;;;11.52;100.00
71970;BME280;59838;52.152;5.436;2023-10-31T09:50:55;100204.47;;;11.60;100.00
71970;BME280;59838;52.152;5.436;2023-10-31T09:53:23;100210.84;;;11.57;100.00
71970;BME280;59838;52.152;5.436;2023-10-31T09:55:51;100217.84;;;11.50;100.00
71970;BME280;59838;52.152;5.436;2023-10-31T09:58:17;100215.25;;;11.50;100.00
71970;BME280;59838;52.152;5.436;2023-10-31T10:00:44;100217.66;;;11.51;100.00
71970;BME280;59838;52.152;5.436;2023-10-31T10:03:11;100229.25;;;11.56;100.00
71970;BME280;59838;52.152;5.436;2023-10-31T10:05:38;100231.84;;;11.62;100.00
71970;BME280;59838;52.152;5.436;2023-10-31T10:08:06;100232.81;;;11.75;100.00
71970;BME280;59838;52.152;5.436;2023-10-31T10:10:33;100237.19;;;11.87;100.00
71970;BME280;59838;52.152;5.436;2023-10-31T10:13:00;100239.78;;;12.01;100.00
71970;BME280;59838;52.152;5.436;2023-10-31T10:15:29;100230.50;;;12.18;100.00
71970;BME280;59838;52.152;5.436;2023-10-31T10:17:55;100241.59;;;12.39;100.00
71970;BME280;59838;52.152;5.436;2023-10-31T10:20:22;100241.91;;;12.56;100.00
71970;BME280;59838;52.152;5.436;2023-10-31T10:22:49;100247.06;;;12.62;100.00
71970;BME280;59838;52.152;5.436;2023-10-31T10:25:17;100244.25;;;12.64;100.00
71970;BME280;59838;52.152;5.436;2023-10-31T10:27:45;100248.28;;;12.67;100.00
71970;BME280;59838;52.152;5.436;2023-10-31T10:30:13;100253.22;;;12.75;100.00
71970;BME280;59838;52.152;5.436;2023-10-31T10:32:40;100246.50;;;12.86;100.00
71970;BME280;59838;52.152;5.436;2023-10-31T10:35:07;100248.66;;;12.95;100.00
71970;BME280;59838;52.152;5.436;2023-10-31T10:37:37;100249.03;;;12.99;100.00
71970;BME280;59838;52.152;5.436;2023-10-31T10:40:06;100248.59;;;13.02;100.00
71970;BME280;59838;52.152;5.436;2023-10-31T10:42:56;100244.66;;;13.18;100.00
71970;BME280;59838;52.152;5.436;2023-10-31T10:45:24;100249.53;;;13.40;100.00
71970;BME280;59838;52.152;5.436;2023-10-31T10:47:51;100252.94;;;13.59;100.00
71970;BME280;59838;52.152;5.436;2023-10-31T10:50:19;100251.16;;;13.59;100.00
71970;BME280;59838;52.152;5.436;2023-10-31T10:53:05;100258.66;;;13.49;100.00
71970;BME280;59838;52.152;5.436;2023-10-31T10:55:39;100253.50;;;13.42;100.00
71970;BME280;59838;52.152;5.436;2023-10-31T10:58:19;100256.66;;;13.51;100.00
71970;BME280;59838;52.152;5.436;2023-10-31T11:00:49;100258.00;;;13.53;100.00
71970;BME280;59838;52.152;5.436;2023-10-31T11:03:17;100254.19;;;13.56;100.00
71970;BME280;59838;52.152;5.436;2023-10-31T11:05:45;100251.84;;;13.48;100.00
71970;BME280;59838;52.152;5.436;2023-10-31T11:08:13;100261.13;;;13.44;100.00
71970;BME280;59838;52.152;5.436;2023-10-31T11:10:40;100256.19;;;13.54;100.00
71970;BME280;59838;52.152;5.436;2023-10-31T11:13:08;100262.00;;;13.56;100.00
71970;BME280;59838;52.152;5.436;2023-10-31T11:15:35;100253.59;;;13.54;100.00
71970;BME280;59838;52.152;5.436;2023-10-31T11:18:02;100259.84;;;13.53;100.00
71970;BME280;59838;52.152;5.436;2023-10-31T11:20:31;100261.06;;;13.50;100.00
71970;BME280;59838;52.152;5.436;2023-10-31T11:22:57;100264.09;;;13.47;100.00
71970;BME280;59838;52.152;5.436;2023-10-31T11:25:24;100264.91;;;13.48;100.00
71970;BME280;59838;52.152;5.436;2023-10-31T11:28:15;100273.38;;;13.62;100.00
71970;BME280;59838;52.152;5.436;2023-10-31T11:30:42;100273.09;;;13.70;100.00
71970;BME280;59838;52.152;5.436;2023-10-31T11:33:13;100280.22;;;13.81;100.00
71970;BME280;59838;52.152;5.436;2023-10-31T11:35:40;100270.16;;;13.85;100.00
71970;BME280;59838;52.152;5.436;2023-10-31T11:38:08;100272.38;;;13.81;100.00
71970;BME280;59838;52.152;5.436;2023-10-31T11:40:37;100279.66;;;13.79;100.00
71970;BME280;59838;52.152;5.436;2023-10-31T11:43:06;100283.31;;;13.71;100.00
71970;BME280;59838;52.152;5.436;2023-10-31T11:45:43;100274.84;;;13.58;100.00
71970;BME280;59838;52.152;5.436;2023-10-31T11:48:15;100281.34;;;13.48;100.00
71970;BME280;59838;52.152;5.436;2023-10-31T11:50:42;100280.63;;;13.41;100.00
71970;BME280;59838;52.152;5.436;2023-10-31T11:53:13;100281.88;;;13.32;100.00
71970;BME280;59838;52.152;5.436;2023-10-31T11:55:47;100283.16;;;13.23;100.00
71970;BME280;59838;52.152;5.436;2023-10-31T11:58:22;100287.56;;;13.22;100.00
71970;BME280;59838;52.152;5.436;2023-10-31T12:00:56;100291.56;;;13.25;100.00
71970;BME280;59838;52.152;5.436;2023-10-31T12:03:27;100283.91;;;13.30;100.00
71970;BME280;59838;52.152;5.436;2023-10-31T12:05:58;100287.91;;;13.32;100.00
71970;BME280;59838;52.152;5.436;2023-10-31T12:08:26;100287.31;;;13.30;100.00
71970;BME280;59838;52.152;5.436;2023-10-31T12:11:19;100283.34;;;13.21;100.00
71970;BME280;59838;52.152;5.436;2023-10-31T12:13:58;100289.81;;;13.19;100.00
71970;BME280;59838;52.152;5.436;2023-10-31T12:16:27;100288.00;;;13.19;100.00
71970;BME280;59838;52.152;5.436;2023-10-31T12:18:58;100307.88;;;13.13;100.00
71970;BME280;59838;52.152;5.436;2023-10-31T12:21:44;100309.34;;;13.09;100.00
71970;BME280;59838;52.152;5.436;2023-10-31T12:24:15;100310.53;;;13.07;100.00
71970;BME280;59838;52.152;5.436;2023-10-31T12:26:42;100298.13;;;13.02;100.00
71970;BME280;59838;52.152;5.436;2023-10-31T12:29:19;100318.78;;;13.04;100.00
71970;BME280;59838;52.152;5.436;2023-10-31T12:31:53;100315.38;;;13.03;100.00
71970;BME280;59838;52.152;5.436;2023-10-31T12:34:22;100326.44;;;12.98;100.00
71970;BME280;59838;52.152;5.436;2023-10-31T12:36:51;100319.25;;;12.94;100.00
71970;BME280;59838;52.152;5.436;2023-10-31T12:39:21;100327.31;;;12.86;100.00
71970;BME280;59838;52.152;5.436;2023-10-31T12:41:49;100335.34;;;12.84;100.00
71970;BME280;59838;52.152;5.436;2023-10-31T12:44:26;100328.41;;;12.78;100.00
71970;BME280;59838;52.152;5.436;2023-10-31T12:46:54;100334.97;;;12.80;100.00
71970;BME280;59838;52.152;5.436;2023-10-31T12:49:21;100338.56;;;12.86;100.00
71970;BME280;59838;52.152;5.436;2023-10-31T12:52:00;100344.56;;;12.87;100.00